Time;durP1;ratioP1;P1;durP2;ratioP2;P2;SDS_P1;SDS_P2;PMS_P1;PMS_P2;Temp;Humidity;BMP_temperature;BMP_pressure;BME280_temperature;BME280_humidity;BME280_pressure;Samples;Min_cycle;Max_cycle;Signal;HPM_P1;HPM_P2
2022/10/05 02:47:36;;;;;;;6.75;3.53;;;8.50;99.90;;;;;;5328731;23;88536;-85
2022/10/05 02:50:02;;;;;;;7.82;2.90;;;8.50;99.90;;;;;;4919585;28;86700;-83
2022/10/05 02:53:09;;;;;;;7.85;3.78;;;8.60;99.90;;;;;;4914635;28;86217;-84
2022/10/05 02:56:06;;;;;;;8.30;3.35;;;8.70;99.90;;;;;;4913891;28;86926;-83
2022/10/05 02:58:57;;;;;;;6.78;2.92;;;8.80;99.90;;;;;;4914827;28;86303;-83
2022/10/05 03:01:39;;;;;;;9.48;3.25;;;8.80;99.90;;;;;;4916489;28;87507;-84
2022/10/05 03:04:20;;;;;;;8.68;3.22;;;8.90;99.90;;;;;;4923658;28;87200;-87
2022/10/05 03:07:11;;;;;;;8.55;3.00;;;8.90;99.90;;;;;;4917196;28;86271;-84
2022/10/05 03:09:50;;;;;;;7.82;2.95;;;9.10;99.90;;;;;;4897325;28;86338;-84
2022/10/05 03:12:44;;;;;;;8.15;3.40;;;9.20;99.90;;;;;;4920184;28;87294;-81
2022/10/05 03:15:13;;;;;;;8.93;3.33;;;9.20;99.90;;;;;;4908740;28;87095;-83
2022/10/05 03:18:16;;;;;;;8.30;3.35;;;9.30;99.90;;;;;;4908495;28;87038;-84
2022/10/05 03:20:51;;;;;;;7.88;3.50;;;9.30;99.90;;;;;;4906565;28;86421;-83
2022/10/05 03:23:30;;;;;;;10.07;3.63;;;9.30;99.90;;;;;;4923658;28;87254;-83
2022/10/05 03:26:33;;;;;;;12.25;4.65;;;9.30;99.90;;;;;;4924087;28;87002;-85
2022/10/05 03:29:02;;;;;;;16.95;4.25;;;9.30;99.90;;;;;;4912774;28;87244;-81
2022/10/05 03:31:52;;;;;;;15.00;4.15;;;9.40;99.90;;;;;;4911017;28;86661;-80
2022/10/05 03:34:45;;;;;;;10.57;3.72;;;9.40;99.90;;;;;;4916927;28;87482;-80
2022/10/05 03:37:26;;;;;;;11.52;4.30;;;9.50;99.90;;;;;;4901769;28;86634;-80
2022/10/05 03:40:30;;;;;;;20.40;5.07;;;9.50;99.90;;;;;;4918250;28;86372;-81
2022/10/05 03:43:23;;;;;;;23.25;8.40;;;9.50;99.90;;;;;;4913328;28;86598;-80
2022/10/05 03:46:12;;;;;;;12.73;5.05;;;9.50;99.90;;;;;;4909498;28;86792;-81
2022/10/05 03:49:02;;;;;;;42.08;5.93;;;9.50;99.90;;;;;;4893674;28;86242;-80
2022/10/05 03:51:32;;;;;;;19.55;6.00;;;9.50;99.90;;;;;;4897636;28;86811;-81
2022/10/05 03:54:42;;;;;;;37.78;6.28;;;9.50;99.90;;;;;;4904073;28;87704;-82
2022/10/05 03:57:15;;;;;;;12.93;4.90;;;9.50;99.90;;;;;;4825495;29;89742;-81
2022/10/05 04:00:01;;;;;;;19.80;7.03;;;9.50;99.90;;;;;;4826071;29;88413;-80
2022/10/05 04:02:41;;;;;;;25.48;7.95;;;9.60;99.90;;;;;;4865119;28;87187;-80
2022/10/05 04:05:09;;;;;;;53.65;8.77;;;9.70;99.90;;;;;;4901232;28;86910;-80
2022/10/05 04:08:12;;;;;;;28.17;8.07;;;9.60;99.90;;;;;;4899050;28;87763;-80
2022/10/05 04:10:44;;;;;;;20.42;6.80;;;9.70;99.90;;;;;;4894457;28;86818;-81
2022/10/05 04:13:27;;;;;;;29.02;7.03;;;9.70;99.90;;;;;;4896129;28;86586;-82
2022/10/05 04:16:01;;;;;;;25.65;7.03;;;9.70;99.90;;;;;;4893519;28;85922;-84
2022/10/05 04:19:04;;;;;;;22.85;6.78;;;9.70;99.90;;;;;;4897346;28;87325;-82
2022/10/05 04:21:42;;;;;;;15.57;6.68;;;9.70;99.90;;;;;;4899242;28;86778;-83
2022/10/05 04:24:20;;;;;;;19.80;6.38;;;9.70;99.90;;;;;;4900150;28;87956;-81
2022/10/05 04:27:23;;;;;;;18.55;7.05;;;9.60;99.90;;;;;;4901794;28;86405;-84
2022/10/05 04:29:57;;;;;;;21.55;7.20;;;9.60;99.90;;;;;;4901165;28;87608;-82
2022/10/05 04:32:40;;;;;;;24.08;8.25;;;9.50;99.90;;;;;;4895056;28;87009;-82
2022/10/05 04:35:22;;;;;;;54.08;8.27;;;9.50;99.90;;;;;;4890794;28;86179;-84
2022/10/05 04:37:54;;;;;;;50.63;7.95;;;9.40;99.90;;;;;;4897921;28;86592;-81
2022/10/05 04:40:39;;;;;;;121.72;8.57;;;9.30;99.90;;;;;;4894214;28;88296;-81
2022/10/05 04:43:20;;;;;;;9.70;3.30;;;9.10;99.90;;;;;;4888551;28;87589;-81
2022/10/05 04:46:03;;;;;;;8.05;2.80;;;8.80;99.90;;;;;;4901652;28;86698;-83
2022/10/05 04:48:38;;;;;;;6.28;2.58;;;8.70;99.90;;;;;;4898119;28;86905;-81
2022/10/05 04:51:13;;;;;;;10.05;2.15;;;8.70;99.90;;;;;;4894145;28;88315;-79
2022/10/05 04:53:43;;;;;;;7.43;3.25;;;8.60;99.90;;;;;;4892835;28;87915;-79
2022/10/05 04:56:16;;;;;;;8.73;2.63;;;8.60;99.90;;;;;;4902663;28;87311;-79
2022/10/05 04:59:20;;;;;;;8.98;2.47;;;8.50;99.90;;;;;;4897717;28;87535;-82
2022/10/05 05:02:01;;;;;;;6.57;1.52;;;8.40;99.90;;;;;;4893160;28;86773;-80
2022/10/05 05:04:42;;;;;;;10.25;2.92;;;8.30;99.90;;;;;;4900425;28;87443;-80
2022/10/05 05:07:39;;;;;;;5.38;0.90;;;8.20;99.90;;;;;;4895845;28;86503;-79
2022/10/05 05:10:33;;;;;;;2.90;0.60;;;8.30;99.90;;;;;;4900465;28;86011;-80
2022/10/05 05:13:04;;;;;;;10.75;1.88;;;8.50;99.90;;;;;;4898257;28;87763;-79
2022/10/05 05:15:37;;;;;;;13.10;3.47;;;8.40;99.90;;;;;;4892038;28;86815;-79
2022/10/05 05:18:20;;;;;;;13.57;4.47;;;8.30;99.90;;;;;;4897113;28;87380;-79
2022/10/05 05:21:01;;;;;;;11.10;3.60;;;8.30;99.90;;;;;;4897070;28;86327;-79
2022/10/05 05:23:38;;;;;;;18.35;4.65;;;8.30;99.90;;;;;;4895747;28;87625;-79
2022/10/05 05:26:19;;;;;;;25.02;6.38;;;8.50;99.90;;;;;;4894403;28;87174;-80
2022/10/05 05:29:20;;;;;;;15.30;5.22;;;8.60;99.90;;;;;;4894483;28;86772;-79
2022/10/05 05:31:59;;;;;;;17.85;5.85;;;8.70;99.90;;;;;;4914030;28;87095;-80
2022/10/05 05:34:46;;;;;;;19.33;6.70;;;8.80;99.90;;;;;;4905082;28;87274;-78
2022/10/05 05:37:17;;;;;;;22.02;7.07;;;9.00;99.90;;;;;;4909532;28;86536;-80
2022/10/05 05:39:51;;;;;;;20.60;7.30;;;9.10;99.90;;;;;;4897981;28;87003;-79
2022/10/05 05:42:36;;;;;;;24.73;7.47;;;9.20;99.90;;;;;;4898975;28;87078;-80
2022/10/05 05:45:15;;;;;;;18.65;7.20;;;9.40;99.90;;;;;;4895831;28;87760;-79
2022/10/05 05:47:50;;;;;;;18.20;7.60;;;9.60;99.90;;;;;;4899744;28;87918;-81
2022/10/05 05:50:26;;;;;;;49.25;9.23;;;9.80;99.90;;;;;;4896342;28;86263;-79
2022/10/05 05:53:02;;;;;;;52.40;7.85;;;10.00;99.90;;;;;;4898959;28;86990;-79
2022/10/05 05:55:39;;;;;;;33.60;8.15;;;10.10;99.90;;;;;;4899970;28;87615;-81
2022/10/05 05:58:26;;;;;;;18.48;8.25;;;10.30;99.90;;;;;;4901060;28;87267;-81
2022/10/05 06:01:03;;;;;;;16.85;6.78;;;10.40;99.90;;;;;;4898523;28;86724;-80
2022/10/05 06:03:52;;;;;;;50.58;9.20;;;10.60;99.90;;;;;;4902554;28;85556;-81
2022/10/05 06:06:24;;;;;;;15.60;7.35;;;10.80;99.90;;;;;;4899798;28;87281;-79
2022/10/05 06:08:55;;;;;;;18.75;7.50;;;10.90;99.90;;;;;;4894707;28;87005;-79
2022/10/05 06:11:47;;;;;;;293.00;27.90;;;11.00;99.90;;;;;;4898770;28;87943;-79
2022/10/05 06:14:26;;;;;;;26.27;8.73;;;11.00;99.90;;;;;;4898938;28;86808;-78
2022/10/05 06:17:21;;;;;;;53.60;9.52;;;11.10;99.90;;;;;;4901734;28;87045;-79
2022/10/05 06:19:48;;;;;;;22.00;8.07;;;11.20;99.90;;;;;;4880311;28;87108;-79
2022/10/05 06:22:18;;;;;;;16.85;7.70;;;11.40;99.90;;;;;;4898981;28;87887;-79
2022/10/05 06:24:53;;;;;;;28.75;7.60;;;11.60;99.90;;;;;;4901545;28;87020;-78
2022/10/05 06:27:59;;;;;;;43.55;7.20;;;11.50;99.90;;;;;;4899260;28;87587;-80
2022/10/05 06:30:27;;;;;;;30.02;6.50;;;11.20;99.90;;;;;;4897270;28;86693;-80
2022/10/05 06:33:16;;;;;;;30.40;5.97;;;11.00;99.90;;;;;;4888743;28;87213;-79
2022/10/05 06:36:03;;;;;;;92.85;6.63;;;11.30;99.90;;;;;;4897853;28;86843;-81
2022/10/05 06:38:57;;;;;;;101.05;6.13;;;10.90;99.90;;;;;;4896619;28;91148;-78
2022/10/05 06:41:40;;;;;;;64.93;5.80;;;10.90;99.90;;;;;;4890272;28;87715;-78
2022/10/05 06:44:32;;;;;;;90.57;5.95;;;11.50;99.90;;;;;;4888493;28;87048;-77
2022/10/05 06:47:54;;;;;;;34.95;4.72;;;12.00;99.90;;;;;;4898260;28;86329;-75
2022/10/05 06:50:42;;;;;;;68.10;5.32;;;12.30;99.90;;;;;;4856626;28;87701;-76
2022/10/05 06:53:33;;;;;;;9.18;3.58;;;13.50;99.90;;;;;;4858138;28;86900;-76
2022/10/05 06:56:07;;;;;;;8.60;2.47;;;15.10;99.90;;;;;;4893400;28;86803;-78
2022/10/05 06:58:55;;;;;;;4.25;1.90;;;17.50;97.90;;;;;;4898894;28;85754;-79
2022/10/05 07:01:34;;;;;;;4.38;1.85;;;20.30;80.40;;;;;;4897917;28;86755;-79
2022/10/05 07:04:12;;;;;;;5.43;2.05;;;22.10;70.70;;;;;;4896483;28;87322;-78
2022/10/05 07:06:47;;;;;;;5.40;1.65;;;23.40;62.70;;;;;;4897591;28;87663;-79
2022/10/05 07:09:16;;;;;;;10.48;2.08;;;23.90;60.50;;;;;;4890482;28;86411;-78
2022/10/05 07:12:00;;;;;;;5.93;2.22;;;24.60;60.40;;;;;;4893388;28;88386;-79
2022/10/05 07:14:57;;;;;;;5.05;1.48;;;25.70;52.90;;;;;;4894955;28;86244;-78
2022/10/05 07:17:44;;;;;;;3.67;2.00;;;26.50;52.10;;;;;;4895508;28;86466;-79
2022/10/05 07:20:47;;;;;;;6.53;2.38;;;27.80;48.70;;;;;;4892194;28;86747;-79
2022/10/05 07:23:48;;;;;;;5.15;2.47;;;28.60;49.90;;;;;;4891528;28;87134;-79
2022/10/05 07:26:21;;;;;;;8.23;3.83;;;30.00;44.30;;;;;;4892059;28;86952;-82
2022/10/05 07:28:54;;;;;;;6.82;3.65;;;30.20;46.50;;;;;;4899723;28;86337;-80
2022/10/05 07:31:38;;;;;;;6.43;5.20;;;31.40;43.40;;;;;;4892958;28;86190;-78
2022/10/05 07:34:10;;;;;;;8.10;5.57;;;31.30;43.80;;;;;;4893947;28;87506;-81
2022/10/05 07:40:19;;;;;;;7.03;4.55;;;31.60;41.90;;;;;;4885624;28;87121;-81
2022/10/05 07:43:10;;;;;;;8.70;4.80;;;31.80;41.90;;;;;;4894725;28;86877;-77
2022/10/05 07:45:47;;;;;;;7.25;5.63;;;32.50;43.10;;;;;;4894049;28;87338;-78
2022/10/05 07:48:34;;;;;;;6.90;4.65;;;33.20;40.40;;;;;;4896400;28;86708;-77
2022/10/05 07:51:19;;;;;;;7.25;6.43;;;33.50;39.20;;;;;;4897292;28;87155;-77
2022/10/05 07:53:53;;;;;;;5.13;4.03;;;33.60;38.30;;;;;;4891189;28;85993;-78
2022/10/05 07:56:31;;;;;;;6.38;4.45;;;34.30;37.00;;;;;;4897050;28;87321;-78
2022/10/05 07:59:10;;;;;;;5.07;4.40;;;34.80;37.50;;;;;;4892779;28;86871;-78
2022/10/05 08:01:40;;;;;;;9.02;5.03;;;35.10;37.40;;;;;;4892727;28;87531;-78
2022/10/05 08:04:09;;;;;;;5.50;4.13;;;36.00;37.90;;;;;;4893069;28;87407;-78
2022/10/05 08:06:47;;;;;;;8.60;4.97;;;36.80;36.20;;;;;;4893700;28;87333;-78
2022/10/05 08:09:35;;;;;;;8.02;5.63;;;37.50;35.00;;;;;;4895189;28;86987;-81
2022/10/05 08:12:07;;;;;;;8.75;6.78;;;37.40;35.40;;;;;;4897087;28;87001;-79
2022/10/05 08:14:32;;;;;;;8.52;6.95;;;37.30;36.30;;;;;;4899085;28;86796;-79
2022/10/05 08:17:02;;;;;;;7.18;6.03;;;36.40;36.70;;;;;;4896743;28;86817;-79
2022/10/05 08:20:07;;;;;;;7.38;6.28;;;36.60;36.30;;;;;;4897815;28;86839;-79
2022/10/05 08:22:44;;;;;;;9.35;6.32;;;36.80;35.80;;;;;;4898541;28;87103;-79
2022/10/05 08:25:22;;;;;;;10.05;7.22;;;36.70;35.30;;;;;;4901006;28;86754;-79
2022/10/05 08:28:14;;;;;;;10.82;7.07;;;37.00;35.10;;;;;;4898627;28;88493;-79
2022/10/05 08:31:02;;;;;;;8.00;6.60;;;35.90;36.50;;;;;;4896459;28;87911;-79
2022/10/05 08:33:38;;;;;;;8.30;6.72;;;36.50;36.40;;;;;;4902863;28;86565;-79
2022/10/05 08:36:10;;;;;;;10.23;7.63;;;37.80;35.80;;;;;;4897544;28;86793;-79
2022/10/05 08:38:37;;;;;;;9.82;7.30;;;38.30;34.80;;;;;;4900827;28;87007;-79
2022/10/05 08:41:11;;;;;;;9.07;7.93;;;38.30;34.90;;;;;;4894550;28;87423;-79
2022/10/05 08:43:43;;;;;;;;;;;38.50;33.70;;;;;;4902997;28;86740;-79
2022/10/05 08:46:26;;;;;;;9.10;7.25;;;38.30;35.50;;;;;;4902551;28;86112;-80
2022/10/05 08:49:03;;;;;;;9.50;7.20;;;38.80;33.90;;;;;;4898164;28;87681;-80
2022/10/05 08:51:36;;;;;;;8.30;6.93;;;39.00;33.80;;;;;;4895601;28;87997;-80
2022/10/05 08:54:23;;;;;;;7.68;6.05;;;39.20;33.10;;;;;;4900146;28;88762;-80
2022/10/05 08:57:18;;;;;;;9.30;7.75;;;39.80;33.60;;;;;;4899815;28;86454;-80
2022/10/05 09:00:01;;;;;;;9.10;7.13;;;40.30;32.90;;;;;;4891017;28;87370;-80
2022/10/05 09:02:46;;;;;;;7.82;7.00;;;41.10;31.90;;;;;;4896039;28;86941;-80
2022/10/05 09:06:01;;;;;;;8.52;7.22;;;41.00;32.30;;;;;;4864812;28;87404;-80
2022/10/05 09:08:51;;;;;;;7.35;6.35;;;41.20;30.50;;;;;;4902034;28;86955;-80
2022/10/05 09:12:04;;;;;;;7.32;6.05;;;40.80;31.80;;;;;;4900536;28;87026;-78
2022/10/05 09:14:39;;;;;;;8.70;6.38;;;41.30;30.80;;;;;;4844138;28;87090;-78
2022/10/05 09:17:15;;;;;;;8.63;7.10;;;41.60;31.10;;;;;;4898882;28;86692;-78
2022/10/05 09:20:09;;;;;;;7.72;6.90;;;41.50;31.20;;;;;;4900183;28;86239;-78
2022/10/05 09:23:21;;;;;;;7.82;6.75;;;41.80;31.10;;;;;;4882225;28;88359;-78
2022/10/05 09:26:26;;;;;;;9.57;6.75;;;41.50;30.00;;;;;;4889494;28;89727;-78
2022/10/05 09:29:13;;;;;;;7.88;7.07;;;41.00;31.20;;;;;;4860287;28;87404;-78
2022/10/05 09:31:47;;;;;;;8.23;6.80;;;42.90;30.90;;;;;;4900803;28;86817;-78
2022/10/05 09:34:34;;;;;;;6.93;5.78;;;43.20;29.30;;;;;;4900091;28;87272;-78
2022/10/05 09:37:38;;;;;;;7.80;6.30;;;44.20;29.80;;;;;;4898461;28;86609;-78
2022/10/05 09:40:21;;;;;;;8.15;7.28;;;44.20;28.80;;;;;;4858686;28;86330;-76
2022/10/05 09:43:20;;;;;;;10.70;9.18;;;44.20;28.60;;;;;;4901911;28;86043;-76
2022/10/05 09:46:26;;;;;;;7.30;6.60;;;44.20;28.70;;;;;;4895180;28;86769;-76
2022/10/05 09:49:27;;;;;;;8.40;7.43;;;42.90;30.00;;;;;;4877100;28;87542;-76
2022/10/05 09:52:01;;;;;;;9.25;8.32;;;42.70;29.40;;;;;;4896462;28;88698;-77
2022/10/05 09:54:44;;;;;;;5.82;5.25;;;43.00;29.40;;;;;;4901217;28;86631;-77
2022/10/05 09:57:10;;;;;;;6.20;5.65;;;44.50;28.80;;;;;;4900668;28;87161;-77
2022/10/05 09:59:51;;;;;;;8.13;5.57;;;44.30;28.60;;;;;;4891996;28;86384;-76
2022/10/05 10:02:23;;;;;;;7.00;5.65;;;45.10;28.20;;;;;;4898852;28;86398;-77
2022/10/05 10:05:18;;;;;;;8.65;6.47;;;45.30;28.90;;;;;;4898720;28;86649;-76
2022/10/05 10:08:12;;;;;;;6.53;5.50;;;44.70;29.20;;;;;;4893200;28;88173;-76
2022/10/05 10:10:56;;;;;;;;;;;44.10;28.80;;;;;;4890124;28;87779;-76
2022/10/05 10:13:38;;;;;;;6.20;4.93;;;44.00;29.00;;;;;;4886822;28;86281;-76
2022/10/05 10:16:09;;;;;;;4.93;4.03;;;44.30;28.30;;;;;;4896619;28;86504;-76
2022/10/05 10:19:05;;;;;;;6.15;5.43;;;42.30;28.80;;;;;;4890794;28;88257;-76
2022/10/05 10:21:53;;;;;;;6.65;5.55;;;39.70;31.60;;;;;;4888437;28;87261;-77
2022/10/05 10:24:24;;;;;;;6.53;5.85;;;36.80;34.70;;;;;;4893144;28;87231;-76
2022/10/05 10:27:03;;;;;;;7.78;6.80;;;33.00;39.70;;;;;;4894857;28;88004;-75
2022/10/05 10:29:50;;;;;;;7.22;5.65;;;29.60;45.40;;;;;;4892482;28;87757;-75
2022/10/05 10:32:45;;;;;;;8.27;6.28;;;27.40;48.30;;;;;;4891103;28;87419;-77
2022/10/05 10:35:54;;;;;;;8.52;5.38;;;26.00;53.10;;;;;;4889843;28;86523;-77
2022/10/05 10:38:29;;;;;;;8.38;6.13;;;24.60;55.50;;;;;;4840159;29;85821;-77
2022/10/05 10:41:13;;;;;;;9.25;6.00;;;23.40;60.30;;;;;;4841756;29;87106;-77
2022/10/05 10:43:51;;;;;;;10.50;7.22;;;22.70;60.40;;;;;;4872824;28;86724;-77
2022/10/05 10:46:31;;;;;;;8.85;5.75;;;22.30;62.80;;;;;;4891012;28;88239;-77
2022/10/05 10:49:15;;;;;;;9.25;5.68;;;21.70;62.80;;;;;;4888701;28;86820;-76
2022/10/05 10:51:50;;;;;;;9.93;6.45;;;21.40;64.70;;;;;;4890196;28;88240;-76
2022/10/05 10:54:28;;;;;;;10.80;7.25;;;20.90;67.10;;;;;;4886664;28;86251;-77
2022/10/05 10:57:07;;;;;;;10.38;5.35;;;20.70;68.40;;;;;;4897076;28;87171;-76
2022/10/05 10:59:54;;;;;;;8.50;5.70;;;20.60;67.10;;;;;;4890050;28;86167;-76
2022/10/05 11:02:38;;;;;;;9.15;5.47;;;20.70;68.30;;;;;;4890737;28;87650;-76
2022/10/05 11:05:17;;;;;;;13.60;5.65;;;20.40;67.90;;;;;;4896562;28;86286;-76
2022/10/05 11:08:03;;;;;;;9.35;4.95;;;20.60;69.60;;;;;;4897063;28;86930;-76
2022/10/05 11:11:07;;;;;;;9.05;5.05;;;20.40;68.50;;;;;;4899150;28;87709;-76
2022/10/05 11:13:52;;;;;;;8.55;5.65;;;20.20;70.00;;;;;;4872434;28;89956;-76
2022/10/05 11:16:49;;;;;;;8.07;4.53;;;20.20;71.10;;;;;;4899486;28;87310;-76
2022/10/05 11:19:34;;;;;;;8.52;4.70;;;19.90;70.50;;;;;;4894849;28;86766;-76
2022/10/05 11:22:19;;;;;;;11.32;5.07;;;20.10;68.50;;;;;;4894961;28;86304;-76
2022/10/05 11:25:19;;;;;;;9.68;4.88;;;20.10;70.80;;;;;;4903474;28;86903;-76
2022/10/05 11:28:03;;;;;;;8.82;5.05;;;19.90;73.30;;;;;;4893268;28;86486;-76
2022/10/05 11:30:49;;;;;;;8.65;5.10;;;20.00;68.10;;;;;;4892830;28;86627;-76
2022/10/05 11:33:26;;;;;;;8.75;5.30;;;20.00;70.10;;;;;;4896094;28;85810;-75
2022/10/05 11:36:13;;;;;;;10.40;5.20;;;19.90;71.10;;;;;;4894652;28;86683;-76
2022/10/05 11:38:50;;;;;;;9.77;6.10;;;19.60;73.70;;;;;;4894212;28;88461;-75
2022/10/05 11:41:57;;;;;;;8.05;4.95;;;19.50;72.30;;;;;;4892084;28;87578;-75
2022/10/05 11:44:34;;;;;;;9.80;5.95;;;19.60;71.40;;;;;;4836711;28;87018;-75
2022/10/05 11:47:18;;;;;;;11.63;6.53;;;19.50;74.70;;;;;;4889265;28;87152;-76
2022/10/05 11:50:05;;;;;;;9.73;5.55;;;19.40;73.80;;;;;;4892867;28;86914;-76
2022/10/05 11:52:53;;;;;;;10.40;6.38;;;19.30;75.70;;;;;;4893398;28;86370;-76
2022/10/05 11:55:28;;;;;;;8.35;5.22;;;19.30;76.70;;;;;;4893909;28;86699;-76
2022/10/05 11:58:14;;;;;;;9.23;5.47;;;19.70;74.60;;;;;;4896628;28;87321;-76
2022/10/05 12:00:53;;;;;;;9.75;5.88;;;19.80;74.60;;;;;;4892315;28;86803;-76
2022/10/05 12:03:28;;;;;;;9.40;4.57;;;19.80;75.40;;;;;;4888005;28;86691;-76
2022/10/05 12:06:21;;;;;;;11.75;6.57;;;19.80;73.90;;;;;;4893345;28;86991;-75
2022/10/05 12:09:13;;;;;;;12.43;5.68;;;19.80;75.80;;;;;;4888354;28;87686;-76
2022/10/05 12:12:00;;;;;;;12.88;6.35;;;19.80;77.60;;;;;;4892127;28;88184;-76
2022/10/05 12:14:31;;;;;;;9.55;6.25;;;19.90;75.20;;;;;;4895054;28;86728;-76
2022/10/05 12:17:28;;;;;;;8.38;4.90;;;19.90;75.60;;;;;;4894648;28;86638;-76
2022/10/05 12:20:19;;;;;;;11.13;6.35;;;19.90;74.70;;;;;;4880380;28;86731;-76
2022/10/05 12:23:04;;;;;;;12.55;5.90;;;20.10;77.70;;;;;;4893146;28;87333;-76
2022/10/05 12:25:33;;;;;;;9.90;5.35;;;20.00;76.90;;;;;;4886922;28;87385;-76
2022/10/05 12:28:04;;;;;;;10.43;5.88;;;20.10;75.60;;;;;;4896670;28;85669;-76
2022/10/05 12:30:49;;;;;;;8.55;5.22;;;20.30;76.60;;;;;;4896312;28;87729;-76
2022/10/05 12:33:21;;;;;;;7.45;4.93;;;20.30;74.50;;;;;;4895167;28;88618;-76
2022/10/05 12:35:58;;;;;;;10.70;5.85;;;20.40;73.80;;;;;;4896115;28;87859;-77
2022/10/05 12:38:43;;;;;;;14.52;6.95;;;20.30;76.30;;;;;;4886231;28;88377;-76
2022/10/05 12:41:23;;;;;;;7.75;4.47;;;20.30;76.50;;;;;;4893638;28;88917;-76
2022/10/05 12:44:12;;;;;;;8.57;5.82;;;20.60;74.60;;;;;;4892214;28;87442;-76
2022/10/05 12:47:19;;;;;;;9.20;4.85;;;20.50;76.10;;;;;;4888838;28;87077;-76
2022/10/05 12:50:23;;;;;;;10.20;5.50;;;20.60;73.80;;;;;;4890576;28;87528;-76
2022/10/05 12:53:07;;;;;;;8.65;5.22;;;20.60;73.20;;;;;;4894070;28;87359;-76
2022/10/05 12:55:38;;;;;;;9.30;4.78;;;20.40;74.00;;;;;;4887969;28;86251;-76
2022/10/05 12:58:27;;;;;;;9.30;4.82;;;20.40;73.20;;;;;;4893597;28;86759;-76
2022/10/05 13:01:05;;;;;;;8.35;5.10;;;20.50;73.30;;;;;;4891721;28;87333;-75
2022/10/05 13:03:45;;;;;;;8.52;3.75;;;20.40;75.10;;;;;;4893397;28;88825;-76
2022/10/05 13:06:39;;;;;;;9.73;4.85;;;20.40;78.50;;;;;;4893840;28;90775;-77
2022/10/05 13:09:12;;;;;;;12.18;4.45;;;20.40;75.70;;;;;;4893949;28;87019;-76
2022/10/05 13:11:48;;;;;;;7.30;3.95;;;20.50;75.80;;;;;;4895445;28;86936;-76
2022/10/05 13:14:44;;;;;;;8.60;4.15;;;20.50;76.40;;;;;;4894102;28;88240;-76
2022/10/05 13:17:22;;;;;;;6.65;3.90;;;20.60;76.60;;;;;;4899768;28;87082;-76
2022/10/05 13:20:01;;;;;;;6.72;3.78;;;20.40;76.20;;;;;;4897566;28;86813;-77
2022/10/05 13:22:33;;;;;;;9.07;4.72;;;20.20;75.60;;;;;;4895188;28;85802;-76
2022/10/05 13:25:29;;;;;;;5.95;2.88;;;20.20;75.30;;;;;;4896542;28;87443;-76
2022/10/05 13:28:00;;;;;;;5.00;2.58;;;20.30;74.70;;;;;;4900729;28;86752;-76
2022/10/05 13:30:27;;;;;;;6.28;2.92;;;20.30;73.20;;;;;;4891240;28;87560;-76
2022/10/05 13:33:05;;;;;;;6.47;3.08;;;20.40;72.70;;;;;;4897422;28;86513;-76
2022/10/05 13:35:46;;;;;;;6.00;2.45;;;20.50;73.20;;;;;;4891412;28;86760;-76
2022/10/05 13:38:23;;;;;;;4.25;1.83;;;20.50;73.10;;;;;;4891907;28;86597;-76
2022/10/05 13:41:22;;;;;;;5.55;2.30;;;20.40;73.40;;;;;;4896252;28;87064;-76
2022/10/05 13:44:03;;;;;;;3.65;1.95;;;20.60;73.50;;;;;;4899311;28;86563;-76
2022/10/05 13:46:50;;;;;;;3.83;1.88;;;20.50;73.70;;;;;;4895696;28;88288;-76
2022/10/05 13:49:22;;;;;;;3.63;1.83;;;20.70;73.10;;;;;;4893155;28;86235;-76
2022/10/05 13:51:56;;;;;;;4.15;1.70;;;20.80;73.70;;;;;;4900827;28;87377;-76
2022/10/05 13:54:46;;;;;;;4.70;1.17;;;20.90;73.50;;;;;;4900949;28;86779;-76
2022/10/05 13:57:24;;;;;;;3.88;1.73;;;21.10;77.00;;;;;;4897643;28;87558;-76
2022/10/05 13:59:54;;;;;;;3.28;1.50;;;21.20;70.60;;;;;;4894813;28;88004;-76
2022/10/05 14:02:26;;;;;;;4.47;1.85;;;21.20;70.10;;;;;;4892968;28;86338;-76
2022/10/05 14:05:00;;;;;;;3.05;1.65;;;21.10;69.10;;;;;;4894377;28;86620;-76
2022/10/05 14:07:46;;;;;;;4.40;2.53;;;21.00;71.10;;;;;;4894437;28;88847;-76
2022/10/05 14:10:14;;;;;;;5.00;1.85;;;21.30;71.60;;;;;;4894147;28;87025;-76
2022/10/05 14:12:42;;;;;;;4.18;2.30;;;21.30;73.20;;;;;;4885525;28;86797;-76
2022/10/05 14:15:27;;;;;;;5.95;3.17;;;21.30;72.40;;;;;;4889060;28;86613;-76
2022/10/05 14:17:53;;;;;;;4.55;2.05;;;21.20;72.90;;;;;;4884056;28;87645;-76
2022/10/05 14:20:21;;;;;;;6.72;2.72;;;21.20;75.40;;;;;;4888256;28;87272;-76
2022/10/05 14:22:53;;;;;;;6.90;3.15;;;21.40;74.50;;;;;;4895913;28;88798;-76
2022/10/05 14:25:19;;;;;;;7.72;3.72;;;21.40;74.90;;;;;;4898828;28;86595;-76
2022/10/05 14:28:12;;;;;;;7.60;4.45;;;21.30;75.10;;;;;;4899736;28;87134;-76
2022/10/05 14:30:39;;;;;;;5.63;2.90;;;21.40;74.90;;;;;;4892908;28;86984;-76
2022/10/05 14:33:04;;;;;;;8.40;4.25;;;21.40;76.70;;;;;;4896741;28;86666;-76
2022/10/05 14:35:49;;;;;;;6.85;3.17;;;21.40;76.20;;;;;;4897176;28;86746;-76
2022/10/05 14:38:25;;;;;;;10.20;5.18;;;21.40;76.80;;;;;;4893480;28;87375;-77
2022/10/05 14:41:09;;;;;;;8.20;4.43;;;21.40;78.10;;;;;;4888588;28;86382;-76
2022/10/05 14:43:36;;;;;;;6.18;3.25;;;21.40;76.50;;;;;;4897880;28;86854;-76
2022/10/05 14:46:21;;;;;;;8.52;5.10;;;21.30;78.80;;;;;;4896644;28;86761;-76
2022/10/05 14:48:47;;;;;;;10.27;5.03;;;21.40;79.30;;;;;;4889454;28;88313;-75
2022/10/05 14:51:33;;;;;;;10.25;4.60;;;21.30;79.30;;;;;;4890036;28;87153;-76
2022/10/05 14:54:19;;;;;;;6.07;4.20;;;21.10;78.90;;;;;;4895133;28;86859;-76
2022/10/05 14:57:01;;;;;;;8.00;3.85;;;21.10;79.20;;;;;;4891996;28;86279;-76
2022/10/05 14:59:45;;;;;;;9.40;3.88;;;21.20;79.00;;;;;;4895020;28;86913;-76
2022/10/05 15:02:37;;;;;;;6.10;3.60;;;21.30;80.10;;;;;;4889213;28;86924;-76
2022/10/05 15:05:37;;;;;;;5.40;3.38;;;21.20;80.50;;;;;;4895328;28;86239;-76
2022/10/05 15:08:26;;;;;;;4.90;2.30;;;21.20;80.00;;;;;;4883593;28;86265;-76
2022/10/05 15:11:01;;;;;;;6.80;3.22;;;21.30;80.20;;;;;;4896237;28;89482;-76
2022/10/05 15:13:32;;;;;;;5.65;3.08;;;21.30;79.10;;;;;;4888455;28;87589;-76
2022/10/05 15:16:44;;;;;;;4.28;2.08;;;21.30;78.20;;;;;;4884456;28;87250;-76
2022/10/05 15:19:25;;;;;;;6.70;2.15;;;21.40;78.70;;;;;;4893528;28;86475;-76
2022/10/05 15:21:54;;;;;;;3.33;1.60;;;21.30;76.10;;;;;;4897908;28;87315;-76
2022/10/05 15:24:41;;;;;;;4.05;1.30;;;21.30;71.90;;;;;;4884963;28;87168;-76
2022/10/05 15:27:18;;;;;;;2.30;1.02;;;21.30;73.20;;;;;;4886786;28;86541;-76
2022/10/05 15:30:03;;;;;;;3.25;0.90;;;21.40;71.40;;;;;;4886996;28;86961;-76
2022/10/05 15:33:11;;;;;;;4.43;1.70;;;21.50;70.40;;;;;;4889996;28;87316;-76
2022/10/05 15:36:10;;;;;;;6.15;1.27;;;21.40;71.80;;;;;;4846714;28;86432;-76
2022/10/05 15:38:43;;;;;;;3.47;0.95;;;21.40;72.80;;;;;;4890260;28;86283;-76
2022/10/05 15:41:28;;;;;;;2.35;0.85;;;21.20;72.30;;;;;;4886387;28;86631;-76
2022/10/05 15:44:09;;;;;;;3.33;0.90;;;21.20;72.10;;;;;;4896531;28;88614;-76
2022/10/05 15:46:38;;;;;;;5.60;0.68;;;21.10;71.90;;;;;;4888198;28;87515;-76
2022/10/05 15:49:35;;;;;;;3.00;0.65;;;21.00;71.80;;;;;;4896588;28;86921;-76
2022/10/05 15:52:07;;;;;;;1.60;0.52;;;20.90;71.30;;;;;;4894575;28;86260;-76
2022/10/05 15:55:09;;;;;;;3.83;0.60;;;20.90;72.30;;;;;;4892350;28;86961;-76
2022/10/05 15:57:59;;;;;;;2.85;0.60;;;20.70;73.00;;;;;;4896550;28;86732;-76
2022/10/05 16:00:25;;;;;;;3.75;0.52;;;20.70;73.10;;;;;;4897290;28;86922;-76
2022/10/05 16:03:23;;;;;;;5.78;0.55;;;20.60;74.60;;;;;;4893692;28;86594;-76
2022/10/05 16:08:55;;;;;;;13.38;0.75;;;20.60;73.30;;;;;;4898835;28;87648;-75
2022/10/05 16:11:32;;;;;;;3.88;0.45;;;20.50;71.50;;;;;;4885915;28;87517;-76
2022/10/05 16:14:31;;;;;;;2.72;0.47;;;20.40;71.20;;;;;;4890002;28;86329;-76
2022/10/05 16:17:00;;;;;;;2.50;0.40;;;20.40;70.50;;;;;;4892093;28;86534;-76
2022/10/05 16:19:41;;;;;;;2.15;0.35;;;20.20;71.60;;;;;;4890869;28;87005;-76
2022/10/05 16:22:30;;;;;;;4.78;0.50;;;20.10;72.60;;;;;;4894251;28;87003;-75
2022/10/05 16:25:01;;;;;;;2.72;0.75;;;20.00;72.30;;;;;;4895793;28;87429;-75
2022/10/05 16:27:30;;;;;;;2.65;1.60;;;19.50;72.70;;;;;;4890031;28;87067;-75
2022/10/05 16:30:10;;;;;;;3.00;1.30;;;19.20;73.00;;;;;;4889954;28;86999;-75
2022/10/05 16:33:07;;;;;;;2.85;1.42;;;19.10;73.70;;;;;;4890934;28;86303;-76
2022/10/05 16:35:45;;;;;;;3.83;0.70;;;19.00;74.20;;;;;;4896378;28;87374;-76
2022/10/05 16:38:20;;;;;;;12.13;3.42;;;18.80;76.20;;;;;;4894795;28;87674;-76
2022/10/05 16:41:02;;;;;;;10.75;3.03;;;18.40;77.90;;;;;;4897289;28;88339;-75
2022/10/05 16:43:48;;;;;;;5.68;2.13;;;17.90;79.30;;;;;;4893170;28;86710;-76
2022/10/05 16:46:17;;;;;;;6.20;2.20;;;17.80;80.20;;;;;;4896347;28;86635;-76
2022/10/05 16:48:55;;;;;;;4.80;1.40;;;17.70;81.70;;;;;;4895108;28;88788;-76
2022/10/05 16:51:35;;;;;;;4.30;1.95;;;17.70;80.50;;;;;;4900257;28;86563;-75
2022/10/05 16:54:19;;;;;;;5.38;1.58;;;17.60;80.40;;;;;;4898028;28;86612;-76
2022/10/05 16:57:02;;;;;;;5.75;1.80;;;17.50;80.60;;;;;;4892530;28;86873;-76
2022/10/05 16:59:55;;;;;;;4.38;1.30;;;17.40;81.40;;;;;;4899572;28;86948;-76